• Join FlightAware (Why Join?)
  • Login
  • US Flag 
07:38PM EDT


 

Airport Tracker/Info


-or-


 

Live Flight TrackerFlight Track Log ✈ EJA951 ✈ 12-Mar-2014 ✈ KOKC - KOMA

Flight Track Log - Related Links

Times and Time Zones

All times are in EDT time to prevent confusion due to time zone crossing. See the EJA951 flight status page for this flight to view local times or setup timezone preferences in your user account.

Time Position Orientation Groundspeed Altitude Reporting Facility
EDT Latitude Longitude Course Direction KTS MPH feet Rate Location/Type
03:04PM 35.4000 -97.5894 North 149 171 1,900  Level Fort Worth Center
03:06PM 35.4817 -97.5772 North 217 250 6,700 3,300 Climbing Fort Worth Center
03:06PM 35.4914 -97.5789 352° North 240 276 7,300 3,180 Climbing Fort Worth Center
03:07PM 35.5517 -97.5819 358° North 243 280 10,000 3,420 Climbing Fort Worth Center
03:07PM 35.5678 -97.5836 355° North 258 297 10,800 1,980 Climbing Fort Worth Center
03:08PM 35.6281 -97.5883 356° North 268 308 12,300 1,440 Climbing Kansas City Center
03:09PM 35.7194 -97.5947 357° North 315 362 13,700 1,200 Climbing Kansas City Center
03:10PM 35.7791 -97.5833 North  Level FlightAware Approximate
03:10PM 35.8444 -97.5803 North 368 423 14,900  Level Kansas City Center
03:11PM 35.9475 -97.5442 16° North 380 437 15,900 1,320 Climbing Kansas City Center
03:12PM 36.0475 -97.4969 21° North 380 437 17,700 1,920 Climbing Kansas City Center
03:13PM 36.1458 -97.4450 23° Northeast 380 437 19,900 1,740 Climbing Kansas City Center
03:14PM 36.2494 -97.3950 21° North 387 445 21,300 1,140 Climbing Kansas City Center
03:15PM 36.3606 -97.3428 21° North 417 480 22,300 900 Climbing Kansas City Center
03:16PM 36.5014 -97.2764 21° North 445 512 23,200 1,440 Climbing Kansas City Center
03:17PM 36.6194 -97.2200 21° North 449 517 25,300 1,920 Climbing Kansas City Center
03:18PM 36.7394 -97.1658 20° North 456 525 27,300 1,620 Climbing Kansas City Center
03:19PM 36.8625 -97.1281 14° North 456 525 28,700 1,440 Climbing Kansas City Center
03:20PM 36.9928 -97.0956 11° North 454 522 30,300 1,500 Climbing Kansas City Center
03:21PM 37.1206 -97.0597 13° North 461 531 31,800 1,320 Climbing Kansas City Center
03:22PM 37.2494 -97.0258 12° North 466 536 33,100 1,140 Climbing Kansas City Center
03:23PM 37.4003 -96.9856 12° North 476 548 34,200 900 Climbing Kansas City Center
03:24PM 37.5386 -96.9494 12° North 483 556 35,000 360 Climbing Kansas City Center
03:25PM 37.6764 -96.9117 12° North 483 556 35,000  Level Kansas City Center
03:26PM 37.8136 -96.8739 12° North 484 557 35,000  Level Kansas City Center
03:27PM 37.9408 -96.8392 12° North 484 557 35,000  Level Kansas City Center
03:28PM 38.0769 -96.8025 12° North 481 554 35,000  Level Kansas City Center
03:30PM 38.2131 -96.7658 12° North 480 552 35,000  Level Kansas City Center
03:31PM 38.3475 -96.7283 12° North 473 544 35,000  Level Kansas City Center
03:32PM 38.4847 -96.6922 12° North 476 548 35,000  Level Kansas City Center
03:33PM 38.6089 -96.6569 13° North 476 548 35,000  Level Kansas City Center
03:34PM 38.7550 -96.6167 12° North 476 548 35,000  Level Kansas City Center
03:35PM 38.8778 -96.5831 12° North 475 547 35,000  Level Kansas City Center
03:36PM 38.9981 -96.5492 12° North 466 536 35,000  Level Kansas City Center
03:37PM 39.1333 -96.5103 13° North 446 513 35,000 -480 Level Kansas City Center
03:38PM 39.2544 -96.4772 12° North 459 528 34,100 -1,140 Descending Kansas City Center
03:39PM 39.3933 -96.4383 12° North 459 528 32,700 -1,260 Descending Kansas City Center
03:40PM 39.5111 -96.4050 12° North 456 525 31,500 -1,260 Descending Kansas City Center
03:41PM 39.6475 -96.3650 13° North 450 518 30,200 -1,380 Descending Kansas City Center
03:42PM 39.7611 -96.3333 12° North 436 502 28,700 -1,440 Descending Kansas City Center
03:43PM 39.8731 -96.3019 12° North 421 484 27,200 -1,620 Descending Kansas City Center
03:44PM 40.0019 -96.2661 12° North 399 459 25,400 -1,560 Descending Kansas City Center
03:45PM 40.1117 -96.2350 12° North 401 461 24,000 -1,380 Descending Kansas City Center
03:46PM 40.2156 -96.2072 12° North 380 437 22,600 -1,440 Descending Kansas City Center
03:47PM 40.3164 -96.1919 North 366 421 21,100 -1,500 Descending Kansas City Center
03:48PM 40.4200 -96.1756 North 367 422 19,500 -1,680 Descending Minneapolis Center
03:48PM 40.4378 -96.1572 38° Northeast 377 434 19,200 -1,500 Descending Minneapolis Center
03:49PM 40.5375 -96.1461 North 351 404 17,800 -1,260 Descending Minneapolis Center
03:50PM 40.6156 -96.1458 360° North 349 402 16,800 -1,020 Descending Minneapolis Center
03:50PM 40.6286 -96.1306 42° Northeast 314 361 16,800 -1,020 Level Minneapolis Center
03:51PM 40.6994 -96.0950 21° North 263 303 15,700 -1,740 Descending Minneapolis Center
03:52PM 40.7661 -96.0600 22° Northeast 263 303 13,300 -2,340 Descending Minneapolis Center
03:53PM 40.8408 -96.0186 23° Northeast 274 315 11,000 -2,400 Descending Minneapolis Center
03:54PM 40.9056 -95.9894 19° North 268 308 8,600 -2,580 Descending Minneapolis Center
03:54PM 40.9078 -95.9833 64° Northeast 254 292 8,400 -2,820 Descending Minneapolis Center
03:55PM 40.9675 -95.9542 20° North 257 296 5,700 -2,760 Descending Minneapolis Center
03:55PM 40.9703 -95.9486 56° Northeast 245 282 5,600 -1,680 Descending Minneapolis Center
03:56PM 41.0292 -95.9231 18° North 247 284 4,000 -780 Descending Minneapolis Center
03:57PM 41.0908 -95.9044 13° North 234 269 4,100  Climbing Minneapolis Center
03:57PM 41.0911 -95.9028 78° East 238 274 4,000 -420 Descending Minneapolis Center
03:58PM 41.1608 -95.8881 North 245 282 3,700 -240 Descending Minneapolis Center
03:58PM 41.1569 -95.8892 192° South 237 273 3,800 -840 Climbing Minneapolis Center
03:59PM 41.2211 -95.8506 24° Northeast 217 250 2,800 -900 Descending Minneapolis Center
03:59PM 41.2142 -95.8522 190° South 233 268 2,900 -1,080 Climbing Minneapolis Center
04:00PM 41.2672 -95.8561 357° North 197 227 1,700 -1,140 Descending Minneapolis Center
04:01PM 41.2703 -95.8642 297° West 146 168 1,700 -600 Level Minneapolis Center
04:02PM 41.2964 -95.8844 330° Northwest 159 183 1,100 -660 Descending Minneapolis Center